createdAt,value
2023-01-18T00:02:23.466Z,88.50
2023-01-18T00:05:09.708Z,88.30
2023-01-18T00:07:55.841Z,88.10
2023-01-18T00:10:42.566Z,88.30
2023-01-18T00:13:28.269Z,88.20
2023-01-18T00:16:15.641Z,88.40
2023-01-18T00:19:01.409Z,88.70
2023-01-18T00:21:47.423Z,88.60
2023-01-18T00:24:33.558Z,88.70
2023-01-18T00:27:20.709Z,88.80
2023-01-18T00:30:07.811Z,89.00
2023-01-18T00:33:01.452Z,89.20
2023-01-18T00:36:01.275Z,89.20
2023-01-18T00:38:51.393Z,89.20
2023-01-18T00:41:57.163Z,89.80
2023-01-18T00:44:42.902Z,89.20
2023-01-18T00:47:29.030Z,89.00
2023-01-18T00:50:15.085Z,88.40
2023-01-18T00:53:01.008Z,88.20
2023-01-18T00:55:47.568Z,88.00
2023-01-18T00:58:33.489Z,87.10
2023-01-18T01:01:19.477Z,87.00
2023-01-18T01:04:24.162Z,86.80
2023-01-18T01:07:09.867Z,87.10
2023-01-18T01:09:57.777Z,87.60
2023-01-18T01:13:02.393Z,88.20
2023-01-18T01:16:06.921Z,88.10
2023-01-18T01:19:12.011Z,87.50
2023-01-18T01:22:16.446Z,87.60
2023-01-18T01:25:20.687Z,87.30
2023-01-18T01:28:07.689Z,87.70
2023-01-18T01:30:56.688Z,87.40
2023-01-18T01:33:43.243Z,88.20
2023-01-18T01:36:28.959Z,88.50
2023-01-18T01:39:14.917Z,88.30
2023-01-18T01:42:00.922Z,87.70
2023-01-18T01:44:50.147Z,88.20
2023-01-18T01:47:41.547Z,88.00
2023-01-18T01:50:31.363Z,88.40
2023-01-18T01:53:17.417Z,88.00
2023-01-18T01:56:04.879Z,87.80
2023-01-18T01:58:53.377Z,88.30
2023-01-18T02:01:40.351Z,88.60
2023-01-18T02:04:26.672Z,89.40
2023-01-18T02:07:12.919Z,89.40
2023-01-18T02:09:59.510Z,88.70
2023-01-18T02:12:48.345Z,88.60
2023-01-18T02:15:43.293Z,88.90
2023-01-18T02:18:32.541Z,88.90
2023-01-18T02:21:19.799Z,88.50
2023-01-18T02:24:24.440Z,88.40
2023-01-18T02:27:21.547Z,88.20
2023-01-18T02:30:16.248Z,87.60
2023-01-18T02:33:08.675Z,87.60
2023-01-18T02:35:56.159Z,87.50
2023-01-18T02:38:44.446Z,87.40
2023-01-18T02:41:56.569Z,87.40
2023-01-18T02:45:01.879Z,87.20
2023-01-18T02:47:48.298Z,87.30
2023-01-18T02:50:33.835Z,87.10
2023-01-18T02:53:20.124Z,87.60
2023-01-18T02:56:08.999Z,87.80
2023-01-18T02:59:08.867Z,88.00
2023-01-18T03:01:59.995Z,88.00
2023-01-18T03:04:57.132Z,87.80
2023-01-18T03:07:48.705Z,88.00
2023-01-18T03:10:38.437Z,88.10
2023-01-18T03:13:29.769Z,88.40
2023-01-18T03:16:20.941Z,88.50
2023-01-18T03:19:30.588Z,88.60
2023-01-18T03:22:16.394Z,88.60
2023-01-18T03:25:02.910Z,88.70
2023-01-18T03:28:09.468Z,88.90
2023-01-18T03:31:15.079Z,88.90
2023-01-18T03:34:03.556Z,88.70
2023-01-18T03:36:52.423Z,88.90
2023-01-18T03:39:44.686Z,88.90
2023-01-18T03:42:37.303Z,89.10
2023-01-18T03:45:41.904Z,89.00
2023-01-18T03:48:28.024Z,89.20
2023-01-18T03:51:26.322Z,89.20
2023-01-18T03:54:17.681Z,89.40
2023-01-18T03:57:15.328Z,89.60
2023-01-18T04:00:01.628Z,89.60
2023-01-18T04:02:48.976Z,90.00
2023-01-18T04:05:35.321Z,90.00
2023-01-18T04:08:22.030Z,89.90
2023-01-18T04:11:07.939Z,89.80
2023-01-18T04:13:54.645Z,89.60
2023-01-18T04:16:40.600Z,89.40
2023-01-18T04:19:28.239Z,89.50
2023-01-18T04:22:14.626Z,89.70
2023-01-18T04:25:00.696Z,89.40
2023-01-18T04:27:46.590Z,89.30
2023-01-18T04:30:32.526Z,89.40
2023-01-18T04:33:20.605Z,89.50
2023-01-18T04:36:06.798Z,89.30
2023-01-18T04:38:53.647Z,89.10
2023-01-18T04:41:39.645Z,88.90
2023-01-18T04:44:25.628Z,88.80
2023-01-18T04:47:11.539Z,88.80
2023-01-18T04:50:01.029Z,88.60
2023-01-18T04:52:46.878Z,88.90
2023-01-18T04:55:32.842Z,88.70
2023-01-18T04:58:19.019Z,88.60
2023-01-18T05:01:05.804Z,88.70
2023-01-18T05:03:55.390Z,88.70
2023-01-18T05:06:41.736Z,88.80
2023-01-18T05:09:27.713Z,88.70
2023-01-18T05:12:13.839Z,88.80
2023-01-18T05:14:59.929Z,88.90
2023-01-18T05:17:45.907Z,88.70
2023-01-18T05:20:31.917Z,88.30
2023-01-18T05:23:17.930Z,87.40
2023-01-18T05:26:04.717Z,87.10
2023-01-18T05:28:50.784Z,87.00
2023-01-18T05:31:36.885Z,86.80
2023-01-18T05:34:22.973Z,86.80
2023-01-18T05:37:09.100Z,86.30
2023-01-18T05:39:55.159Z,86.20
2023-01-18T05:42:41.114Z,86.20
2023-01-18T05:45:27.389Z,86.20
2023-01-18T05:48:13.579Z,86.40
2023-01-18T05:50:59.560Z,86.60
2023-01-18T05:53:45.683Z,86.70
2023-01-18T05:56:32.928Z,86.50
2023-01-18T05:59:18.636Z,86.30
2023-01-18T06:02:05.042Z,86.20
2023-01-18T06:04:51.313Z,86.40
2023-01-18T06:07:37.789Z,86.70
2023-01-18T06:10:24.029Z,86.70
2023-01-18T06:13:10.116Z,86.60
2023-01-18T06:15:56.842Z,86.50
2023-01-18T06:18:43.048Z,86.30
2023-01-18T06:21:29.063Z,86.40
2023-01-18T06:24:15.080Z,86.60
2023-01-18T06:27:03.055Z,86.20
2023-01-18T06:29:49.271Z,86.10
2023-01-18T06:32:35.083Z,85.80
2023-01-18T06:35:21.784Z,85.90
2023-01-18T06:38:08.107Z,85.70
2023-01-18T06:40:54.215Z,85.30
2023-01-18T06:43:40.151Z,85.50
2023-01-18T06:46:26.109Z,85.50
2023-01-18T06:49:12.503Z,85.60
2023-01-18T06:51:58.399Z,85.90
2023-01-18T06:54:44.797Z,86.00
2023-01-18T06:57:30.739Z,86.10
2023-01-18T07:00:17.366Z,85.90
2023-01-18T07:03:03.115Z,85.90
2023-01-18T07:05:49.141Z,86.10
2023-01-18T07:08:40.153Z,86.10
2023-01-18T07:11:25.917Z,86.40
2023-01-18T07:14:12.448Z,86.50
2023-01-18T07:16:58.384Z,86.50
2023-01-18T07:19:44.840Z,86.50
2023-01-18T07:22:30.797Z,86.50
2023-01-18T07:25:18.874Z,86.60
2023-01-18T07:28:05.023Z,86.70
2023-01-18T07:30:51.132Z,86.10
2023-01-18T07:33:37.298Z,86.20
2023-01-18T07:36:23.377Z,86.20
2023-01-18T07:39:09.750Z,86.00
2023-01-18T07:41:55.714Z,85.90
2023-01-18T07:44:43.040Z,86.20
2023-01-18T07:47:28.704Z,85.50
2023-01-18T07:50:15.131Z,85.70
2023-01-18T07:53:09.198Z,85.60
2023-01-18T07:55:58.461Z,85.30
2023-01-18T07:58:45.136Z,85.20
2023-01-18T08:01:31.148Z,85.50
2023-01-18T08:04:17.115Z,85.30
2023-01-18T08:07:04.367Z,84.90
2023-01-18T08:09:50.192Z,84.60
2023-01-18T08:12:36.258Z,84.10
2023-01-18T08:15:22.082Z,83.50
2023-01-18T08:18:08.881Z,83.40
2023-01-18T08:20:55.275Z,83.40
2023-01-18T08:23:41.246Z,82.30
2023-01-18T08:26:27.029Z,83.10
2023-01-18T08:29:13.872Z,82.80
2023-01-18T08:32:00.736Z,83.30
2023-01-18T08:34:46.657Z,83.40
2023-01-18T08:37:32.857Z,83.50
2023-01-18T08:40:19.524Z,83.60
2023-01-18T08:43:05.625Z,83.70
2023-01-18T08:45:51.670Z,84.00
2023-01-18T08:48:37.601Z,84.20
2023-01-18T08:51:23.791Z,84.10
2023-01-18T08:54:09.737Z,83.60
2023-01-18T08:56:55.546Z,83.40
2023-01-18T08:59:41.597Z,83.10
2023-01-18T09:02:27.675Z,83.00
2023-01-18T09:05:13.723Z,83.30
2023-01-18T09:08:00.000Z,82.90
2023-01-18T09:10:45.827Z,83.50
2023-01-18T09:13:32.612Z,82.70
2023-01-18T09:16:18.694Z,82.90
2023-01-18T09:19:06.383Z,82.70
2023-01-18T09:21:52.613Z,82.20
2023-01-18T09:24:38.776Z,81.90
2023-01-18T09:27:24.426Z,81.70
2023-01-18T09:30:10.753Z,80.10
2023-01-18T09:32:57.239Z,80.90
2023-01-18T09:35:43.455Z,81.00
2023-01-18T09:38:32.588Z,81.20
2023-01-18T09:41:18.275Z,81.40
2023-01-18T09:44:09.644Z,81.00
2023-01-18T09:46:57.979Z,81.70
2023-01-18T09:49:52.154Z,81.60
2023-01-18T09:52:45.522Z,81.90
2023-01-18T09:55:43.460Z,82.00
2023-01-18T09:58:50.398Z,82.30
2023-01-18T10:01:36.879Z,83.40
2023-01-18T10:04:36.201Z,83.90
2023-01-18T10:07:24.198Z,83.90
2023-01-18T10:10:15.393Z,84.10
2023-01-18T10:13:16.551Z,83.90
2023-01-18T10:16:03.196Z,84.40
2023-01-18T10:18:51.579Z,84.00
2023-01-18T10:21:45.267Z,83.40
2023-01-18T10:24:50.175Z,82.50
2023-01-18T10:27:52.858Z,82.80
2023-01-18T10:30:57.768Z,83.10
2023-01-18T10:33:45.915Z,83.50
2023-01-18T10:36:33.461Z,82.40
2023-01-18T10:39:25.289Z,82.50
2023-01-18T10:42:29.988Z,81.90
2023-01-18T10:45:20.080Z,82.00
2023-01-18T10:48:18.450Z,81.40
2023-01-18T10:51:06.119Z,82.40
2023-01-18T10:53:51.926Z,83.00
2023-01-18T10:56:40.015Z,82.10
2023-01-18T10:59:29.852Z,81.50
2023-01-18T11:02:27.474Z,81.40
2023-01-18T11:05:16.931Z,81.50
2023-01-18T11:08:12.209Z,81.60
2023-01-18T11:11:02.771Z,82.40
2023-01-18T11:13:49.547Z,82.00
2023-01-18T11:16:36.024Z,81.90
2023-01-18T11:19:22.404Z,82.20
2023-01-18T11:22:12.436Z,83.70
2023-01-18T11:24:58.856Z,83.10
2023-01-18T11:27:45.236Z,82.60
2023-01-18T11:30:31.118Z,83.00
2023-01-18T11:33:18.585Z,82.80
2023-01-18T11:36:04.715Z,82.20
2023-01-18T11:38:50.411Z,81.40
2023-01-18T11:41:36.325Z,82.20
2023-01-18T11:44:23.620Z,82.00
2023-01-18T11:47:14.873Z,81.50
2023-01-18T11:50:25.403Z,82.30
2023-01-18T11:53:34.990Z,82.00
2023-01-18T11:56:41.071Z,82.00
2023-01-18T11:59:43.583Z,82.40
2023-01-18T12:02:35.421Z,81.60
2023-01-18T12:05:40.249Z,82.00
2023-01-18T12:08:49.835Z,82.70
2023-01-18T12:11:48.810Z,83.00
2023-01-18T12:14:44.221Z,80.70
2023-01-18T12:17:33.242Z,75.90
2023-01-18T12:20:25.248Z,75.80
2023-01-18T12:23:29.098Z,75.70
2023-01-18T12:26:33.413Z,76.90
2023-01-18T12:29:28.651Z,79.50
2023-01-18T12:32:21.129Z,80.00
2023-01-18T12:35:24.070Z,80.20
2023-01-18T12:38:25.917Z,80.30
2023-01-18T12:41:11.911Z,80.40
2023-01-18T12:44:22.215Z,80.00
2023-01-18T12:47:11.707Z,79.90
2023-01-18T12:49:59.402Z,79.00
2023-01-18T12:52:47.859Z,74.80
2023-01-18T12:55:34.945Z,70.20
2023-01-18T12:58:23.626Z,70.30
2023-01-18T13:01:12.749Z,71.10
2023-01-18T13:04:03.010Z,72.80
2023-01-18T13:06:50.320Z,73.10
2023-01-18T13:09:40.216Z,72.40
2023-01-18T13:12:26.718Z,70.20
2023-01-18T13:15:23.437Z,71.20
2023-01-18T13:18:18.836Z,71.20
2023-01-18T13:21:12.171Z,71.90
2023-01-18T13:24:16.760Z,73.10
2023-01-18T13:27:10.980Z,73.90
2023-01-18T13:30:06.354Z,74.90
2023-01-18T13:32:52.340Z,75.20
2023-01-18T13:35:38.398Z,76.60
2023-01-18T13:38:40.138Z,77.50
2023-01-18T13:41:29.281Z,78.00
2023-01-18T13:44:34.764Z,79.20
2023-01-18T13:47:36.178Z,79.40
2023-01-18T13:50:28.450Z,79.50
2023-01-18T13:53:14.476Z,79.40
2023-01-18T13:56:00.347Z,79.70
2023-01-18T13:58:51.998Z,78.80
2023-01-18T14:01:38.057Z,79.20
2023-01-18T14:04:26.346Z,79.30
2023-01-18T14:07:19.994Z,79.10
2023-01-18T14:10:08.235Z,79.20
2023-01-18T14:12:55.540Z,78.30
2023-01-18T14:15:54.348Z,79.20
2023-01-18T14:18:49.080Z,78.50
2023-01-18T14:21:41.874Z,78.80
2023-01-18T14:24:46.233Z,79.00
2023-01-18T14:27:43.169Z,78.80
2023-01-18T14:30:31.214Z,79.30
2023-01-18T14:33:37.080Z,79.60
2023-01-18T14:36:25.328Z,79.50
2023-01-18T14:39:17.116Z,80.20
2023-01-18T14:42:04.721Z,80.50
2023-01-18T14:44:58.362Z,80.40
2023-01-18T14:47:45.135Z,81.00
2023-01-18T14:50:32.895Z,81.30
2023-01-18T14:53:21.722Z,80.10
2023-01-18T14:56:13.698Z,79.90
2023-01-18T14:59:17.011Z,79.80
2023-01-18T15:02:13.762Z,80.20
2023-01-18T15:05:10.568Z,80.50
2023-01-18T15:07:58.126Z,80.20
2023-01-18T15:10:44.217Z,79.00
2023-01-18T15:13:30.809Z,79.10
2023-01-18T15:16:20.109Z,79.40
2023-01-18T15:19:12.455Z,79.80
2023-01-18T15:22:00.430Z,80.60
2023-01-18T15:24:47.212Z,80.20
2023-01-18T15:27:33.511Z,80.00
2023-01-18T15:30:22.112Z,80.10
2023-01-18T15:33:09.914Z,79.80
2023-01-18T15:35:57.652Z,80.00
2023-01-18T15:38:43.508Z,79.90
2023-01-18T15:41:32.658Z,79.40
2023-01-18T15:44:48.338Z,80.00
2023-01-18T15:47:36.892Z,79.90
2023-01-18T15:50:24.357Z,80.10
2023-01-18T15:53:14.559Z,80.60
2023-01-18T15:56:07.918Z,80.90
2023-01-18T15:58:57.851Z,80.50
2023-01-18T16:01:46.341Z,80.50
2023-01-18T16:04:32.195Z,80.70
2023-01-18T16:07:25.933Z,80.60
2023-01-18T16:10:17.981Z,80.80
2023-01-18T16:13:31.571Z,81.40
2023-01-18T16:16:19.562Z,81.80
2023-01-18T16:19:05.640Z,80.60
2023-01-18T16:21:53.282Z,81.00
2023-01-18T16:24:46.045Z,80.80
2023-01-18T16:27:32.369Z,80.40
2023-01-18T16:30:24.652Z,80.70
2023-01-18T16:33:13.485Z,80.80
2023-01-18T16:35:59.387Z,81.20
2023-01-18T16:38:45.574Z,81.30
2023-01-18T16:41:32.051Z,80.80
2023-01-18T16:44:18.087Z,80.90
2023-01-18T16:47:04.583Z,81.00
2023-01-18T16:49:50.867Z,81.60
2023-01-18T16:52:36.727Z,81.80
2023-01-18T16:55:23.024Z,82.20
2023-01-18T16:58:10.163Z,81.00
2023-01-18T17:01:01.491Z,81.30
2023-01-18T17:03:49.572Z,80.40
2023-01-18T17:06:37.133Z,79.60
2023-01-18T17:09:24.227Z,79.60
2023-01-18T17:12:10.001Z,79.80
2023-01-18T17:14:56.034Z,79.90
2023-01-18T17:17:43.340Z,80.30
2023-01-18T17:20:29.773Z,79.70
2023-01-18T17:23:15.949Z,79.60
2023-01-18T17:26:02.215Z,79.60
2023-01-18T17:28:48.065Z,80.10
2023-01-18T17:31:35.371Z,80.30
2023-01-18T17:34:28.025Z,80.40
2023-01-18T17:37:15.196Z,80.10
2023-01-18T17:40:16.478Z,80.20
2023-01-18T17:43:06.063Z,80.40
2023-01-18T17:46:00.678Z,80.20
2023-01-18T17:48:47.466Z,80.10
2023-01-18T17:51:35.378Z,80.30
2023-01-18T17:54:21.308Z,79.60
2023-01-18T17:57:08.911Z,79.90
2023-01-18T17:59:55.748Z,79.30
2023-01-18T18:02:42.269Z,79.00
2023-01-18T18:05:28.056Z,79.60
2023-01-18T18:08:14.118Z,80.00
2023-01-18T18:11:00.716Z,79.90
2023-01-18T18:13:46.533Z,79.30
2023-01-18T18:16:34.355Z,79.20
2023-01-18T18:19:25.408Z,80.10
2023-01-18T18:22:11.522Z,79.70
2023-01-18T18:24:57.533Z,78.90
2023-01-18T18:27:46.552Z,79.30
2023-01-18T18:30:33.231Z,80.40
2023-01-18T18:33:20.024Z,80.50
2023-01-18T18:36:05.881Z,80.50
2023-01-18T18:38:51.766Z,81.20
2023-01-18T18:41:37.922Z,81.30
2023-01-18T18:44:24.013Z,81.30
2023-01-18T18:47:10.274Z,81.10
2023-01-18T18:49:56.237Z,81.40
2023-01-18T18:52:42.260Z,81.50
2023-01-18T18:55:28.378Z,80.80
2023-01-18T18:58:14.579Z,80.80
2023-01-18T19:01:00.775Z,80.90
2023-01-18T19:03:47.727Z,81.00
2023-01-18T19:06:33.431Z,81.00
2023-01-18T19:09:19.773Z,80.40
2023-01-18T19:12:06.007Z,80.80
2023-01-18T19:14:51.755Z,81.20
2023-01-18T19:17:37.971Z,81.00
2023-01-18T19:20:24.547Z,81.10
2023-01-18T19:23:10.645Z,81.30
2023-01-18T19:25:56.866Z,81.50
2023-01-18T19:28:42.580Z,82.00
2023-01-18T19:31:28.744Z,82.20
2023-01-18T19:34:15.809Z,81.50
2023-01-18T19:37:01.584Z,81.60
2023-01-18T19:39:47.514Z,81.90
2023-01-18T19:42:33.536Z,82.00
2023-01-18T19:45:27.537Z,82.20
2023-01-18T19:48:15.036Z,82.40
2023-01-18T19:51:20.749Z,82.40
2023-01-18T19:54:11.025Z,82.30
2023-01-18T19:56:57.375Z,82.10
2023-01-18T19:59:42.942Z,82.30
2023-01-18T20:02:29.234Z,82.30
2023-01-18T20:05:15.031Z,82.70
2023-01-18T20:08:01.213Z,83.10
2023-01-18T20:10:47.473Z,83.60
2023-01-18T20:13:34.083Z,83.50
2023-01-18T20:16:24.486Z,83.70
2023-01-18T20:19:14.659Z,83.40
2023-01-18T20:22:00.705Z,83.90
2023-01-18T20:24:46.696Z,84.20
2023-01-18T20:27:32.586Z,84.50
2023-01-18T20:30:18.675Z,84.70
2023-01-18T20:33:04.751Z,84.80
2023-01-18T20:35:51.791Z,85.20
2023-01-18T20:38:37.886Z,85.10
2023-01-18T20:41:23.624Z,84.90
2023-01-18T20:44:09.683Z,85.10
2023-01-18T20:46:57.487Z,84.90
2023-01-18T20:49:44.924Z,84.90
2023-01-18T20:52:30.911Z,84.80
2023-01-18T20:55:17.532Z,84.50
2023-01-18T20:58:03.702Z,84.60
2023-01-18T21:00:49.857Z,84.60
2023-01-18T21:03:35.991Z,84.30
2023-01-18T21:06:22.569Z,84.60
2023-01-18T21:09:08.836Z,84.50
2023-01-18T21:11:54.667Z,85.00
2023-01-18T21:14:40.745Z,85.50
2023-01-18T21:17:26.708Z,85.70
2023-01-18T21:20:12.823Z,86.30
2023-01-18T21:22:59.359Z,86.60
2023-01-18T21:25:55.597Z,87.20
2023-01-18T21:28:41.472Z,88.00
2023-01-18T21:31:27.644Z,87.90
2023-01-18T21:34:13.466Z,88.10
2023-01-18T21:36:59.379Z,88.70
2023-01-18T21:39:45.466Z,90.00
2023-01-18T21:42:50.300Z,89.50
2023-01-18T21:45:56.480Z,90.00
2023-01-18T21:48:42.397Z,89.50
2023-01-18T21:51:46.992Z,89.90
2023-01-18T21:54:32.575Z,90.20
2023-01-18T21:57:19.813Z,90.30
2023-01-18T22:00:06.118Z,90.30
2023-01-18T22:02:53.134Z,90.50
2023-01-18T22:05:41.314Z,90.60
2023-01-18T22:08:27.065Z,90.50
2023-01-18T22:11:12.899Z,90.60
2023-01-18T22:13:59.012Z,91.00
2023-01-18T22:16:45.151Z,91.00
2023-01-18T22:19:31.272Z,90.90
2023-01-18T22:22:17.166Z,91.20
2023-01-18T22:25:03.248Z,91.10
2023-01-18T22:27:49.118Z,91.10
2023-01-18T22:30:34.925Z,91.20
2023-01-18T22:33:20.955Z,91.30
2023-01-18T22:36:07.181Z,91.10
2023-01-18T22:38:54.030Z,91.00
2023-01-18T22:41:39.930Z,91.10
2023-01-18T22:44:25.916Z,91.10
2023-01-18T22:47:11.852Z,91.30
2023-01-18T22:49:58.914Z,91.20
2023-01-18T22:52:45.062Z,91.10
2023-01-18T22:55:33.276Z,91.50
2023-01-18T22:58:19.309Z,91.60
2023-01-18T23:01:12.906Z,91.80
2023-01-18T23:04:02.715Z,91.90
2023-01-18T23:06:50.661Z,91.80
2023-01-18T23:09:36.627Z,91.90
2023-01-18T23:12:22.596Z,91.70
2023-01-18T23:15:28.225Z,91.80
2023-01-18T23:18:14.069Z,91.80
2023-01-18T23:21:00.506Z,92.00
2023-01-18T23:23:46.320Z,92.20
2023-01-18T23:26:32.839Z,92.20
2023-01-18T23:29:18.803Z,92.50
2023-01-18T23:32:04.814Z,92.50
2023-01-18T23:34:50.533Z,92.50
2023-01-18T23:37:36.522Z,92.40
2023-01-18T23:40:41.467Z,92.30
2023-01-18T23:43:45.985Z,92.30
2023-01-18T23:46:50.375Z,92.40
2023-01-18T23:49:54.842Z,92.50
2023-01-18T23:52:59.421Z,92.10
2023-01-18T23:55:46.162Z,92.00
2023-01-18T23:58:32.016Z,91.90
